sensor_id;sensor_type;location;lat;lon;timestamp;P1;durP1;ratioP1;P2;durP2;ratioP2
59516;SDS011;45342;42.662;27.718;2023-12-29T00:01:54;8.77;;;6.70;;
59516;SDS011;45342;42.662;27.718;2023-12-29T00:04:20;9.40;;;6.53;;
59516;SDS011;45342;42.662;27.718;2023-12-29T00:06:46;8.68;;;6.75;;
59516;SDS011;45342;42.662;27.718;2023-12-29T00:09:11;10.68;;;7.28;;
59516;SDS011;45342;42.662;27.718;2023-12-29T00:11:38;9.38;;;6.65;;
59516;SDS011;45342;42.662;27.718;2023-12-29T00:14:04;9.38;;;6.60;;
59516;SDS011;45342;42.662;27.718;2023-12-29T00:16:30;9.27;;;6.88;;
59516;SDS011;45342;42.662;27.718;2023-12-29T00:18:56;9.75;;;6.88;;
59516;SDS011;45342;42.662;27.718;2023-12-29T00:21:22;10.65;;;7.18;;
59516;SDS011;45342;42.662;27.718;2023-12-29T00:23:47;11.63;;;7.22;;
59516;SDS011;45342;42.662;27.718;2023-12-29T00:26:16;9.75;;;6.85;;
59516;SDS011;45342;42.662;27.718;2023-12-29T00:28:43;12.13;;;6.97;;
59516;SDS011;45342;42.662;27.718;2023-12-29T00:31:09;9.75;;;7.10;;
59516;SDS011;45342;42.662;27.718;2023-12-29T00:33:41;9.10;;;6.68;;
59516;SDS011;45342;42.662;27.718;2023-12-29T00:36:07;9.18;;;6.35;;
59516;SDS011;45342;42.662;27.718;2023-12-29T00:38:33;10.07;;;6.75;;
59516;SDS011;45342;42.662;27.718;2023-12-29T00:43:25;8.48;;;6.68;;
59516;SDS011;45342;42.662;27.718;2023-12-29T00:45:50;9.90;;;7.05;;
59516;SDS011;45342;42.662;27.718;2023-12-29T00:48:16;9.18;;;6.78;;
59516;SDS011;45342;42.662;27.718;2023-12-29T00:50:42;9.30;;;6.93;;
59516;SDS011;45342;42.662;27.718;2023-12-29T00:53:08;9.70;;;6.57;;
59516;SDS011;45342;42.662;27.718;2023-12-29T00:55:33;10.13;;;7.00;;
59516;SDS011;45342;42.662;27.718;2023-12-29T00:57:59;8.93;;;6.45;;
59516;SDS011;45342;42.662;27.718;2023-12-29T01:00:24;10.20;;;6.95;;
59516;SDS011;45342;42.662;27.718;2023-12-29T01:02:50;8.75;;;6.60;;
59516;SDS011;45342;42.662;27.718;2023-12-29T01:05:16;7.88;;;6.30;;
59516;SDS011;45342;42.662;27.718;2023-12-29T01:07:42;8.93;;;6.55;;
59516;SDS011;45342;42.662;27.718;2023-12-29T01:10:08;10.07;;;7.05;;
59516;SDS011;45342;42.662;27.718;2023-12-29T01:12:34;9.88;;;6.63;;
59516;SDS011;45342;42.662;27.718;2023-12-29T01:15:00;10.60;;;6.60;;
59516;SDS011;45342;42.662;27.718;2023-12-29T01:17:26;8.95;;;6.63;;
59516;SDS011;45342;42.662;27.718;2023-12-29T01:19:53;9.02;;;6.32;;
59516;SDS011;45342;42.662;27.718;2023-12-29T01:22:19;9.20;;;6.57;;
59516;SDS011;45342;42.662;27.718;2023-12-29T01:24:45;9.93;;;6.65;;
59516;SDS011;45342;42.662;27.718;2023-12-29T01:27:11;8.95;;;6.53;;
59516;SDS011;45342;42.662;27.718;2023-12-29T01:29:37;9.40;;;6.80;;
59516;SDS011;45342;42.662;27.718;2023-12-29T01:32:02;9.23;;;6.65;;
59516;SDS011;45342;42.662;27.718;2023-12-29T01:34:31;9.00;;;6.38;;
59516;SDS011;45342;42.662;27.718;2023-12-29T01:36:59;8.88;;;6.32;;
59516;SDS011;45342;42.662;27.718;2023-12-29T01:39:25;8.68;;;6.32;;
59516;SDS011;45342;42.662;27.718;2023-12-29T01:41:51;8.85;;;6.55;;
59516;SDS011;45342;42.662;27.718;2023-12-29T01:44:17;9.88;;;7.22;;
59516;SDS011;45342;42.662;27.718;2023-12-29T01:46:47;8.88;;;6.28;;
59516;SDS011;45342;42.662;27.718;2023-12-29T01:49:15;9.90;;;6.13;;
59516;SDS011;45342;42.662;27.718;2023-12-29T01:51:46;10.82;;;6.60;;
59516;SDS011;45342;42.662;27.718;2023-12-29T01:54:15;9.38;;;6.53;;
59516;SDS011;45342;42.662;27.718;2023-12-29T01:56:42;9.18;;;6.43;;
59516;SDS011;45342;42.662;27.718;2023-12-29T01:59:08;9.35;;;6.40;;
59516;SDS011;45342;42.662;27.718;2023-12-29T02:01:34;8.93;;;6.60;;
59516;SDS011;45342;42.662;27.718;2023-12-29T02:04:01;9.63;;;6.90;;
59516;SDS011;45342;42.662;27.718;2023-12-29T02:06:26;9.15;;;6.50;;
59516;SDS011;45342;42.662;27.718;2023-12-29T02:08:53;10.38;;;6.63;;
59516;SDS011;45342;42.662;27.718;2023-12-29T02:11:18;9.10;;;6.20;;
59516;SDS011;45342;42.662;27.718;2023-12-29T02:13:44;9.80;;;6.50;;
59516;SDS011;45342;42.662;27.718;2023-12-29T02:16:16;8.95;;;6.18;;
59516;SDS011;45342;42.662;27.718;2023-12-29T02:18:44;8.45;;;6.13;;
59516;SDS011;45342;42.662;27.718;2023-12-29T02:21:11;8.35;;;6.15;;
59516;SDS011;45342;42.662;27.718;2023-12-29T02:23:36;8.23;;;6.28;;
59516;SDS011;45342;42.662;27.718;2023-12-29T02:26:03;9.00;;;6.07;;
59516;SDS011;45342;42.662;27.718;2023-12-29T02:28:32;9.98;;;6.65;;
59516;SDS011;45342;42.662;27.718;2023-12-29T02:33:40;8.77;;;6.28;;
59516;SDS011;45342;42.662;27.718;2023-12-29T02:36:06;8.52;;;6.32;;
59516;SDS011;45342;42.662;27.718;2023-12-29T02:38:32;9.02;;;6.70;;
59516;SDS011;45342;42.662;27.718;2023-12-29T02:40:58;9.23;;;6.18;;
59516;SDS011;45342;42.662;27.718;2023-12-29T02:43:24;8.32;;;6.10;;
59516;SDS011;45342;42.662;27.718;2023-12-29T02:45:50;9.18;;;6.80;;
59516;SDS011;45342;42.662;27.718;2023-12-29T02:48:16;9.82;;;6.68;;
59516;SDS011;45342;42.662;27.718;2023-12-29T02:50:42;10.43;;;6.70;;
59516;SDS011;45342;42.662;27.718;2023-12-29T02:53:07;10.82;;;6.75;;
59516;SDS011;45342;42.662;27.718;2023-12-29T02:57:59;8.98;;;6.10;;
59516;SDS011;45342;42.662;27.718;2023-12-29T03:00:25;9.20;;;6.45;;
59516;SDS011;45342;42.662;27.718;2023-12-29T03:02:50;10.45;;;6.78;;
59516;SDS011;45342;42.662;27.718;2023-12-29T03:05:16;9.45;;;6.20;;
59516;SDS011;45342;42.662;27.718;2023-12-29T03:07:42;8.48;;;6.28;;
59516;SDS011;45342;42.662;27.718;2023-12-29T03:10:24;8.98;;;6.22;;
59516;SDS011;45342;42.662;27.718;2023-12-29T03:12:50;7.97;;;6.10;;
59516;SDS011;45342;42.662;27.718;2023-12-29T03:15:18;9.00;;;6.07;;
59516;SDS011;45342;42.662;27.718;2023-12-29T03:17:44;8.70;;;5.97;;
59516;SDS011;45342;42.662;27.718;2023-12-29T03:20:19;8.02;;;6.00;;
59516;SDS011;45342;42.662;27.718;2023-12-29T03:22:45;7.43;;;5.68;;
59516;SDS011;45342;42.662;27.718;2023-12-29T03:25:11;7.43;;;5.85;;
59516;SDS011;45342;42.662;27.718;2023-12-29T03:27:39;9.18;;;6.40;;
59516;SDS011;45342;42.662;27.718;2023-12-29T03:30:04;9.55;;;5.97;;
59516;SDS011;45342;42.662;27.718;2023-12-29T03:32:31;7.85;;;6.00;;
59516;SDS011;45342;42.662;27.718;2023-12-29T03:34:59;8.18;;;6.18;;
59516;SDS011;45342;42.662;27.718;2023-12-29T03:37:28;8.25;;;5.80;;
59516;SDS011;45342;42.662;27.718;2023-12-29T03:39:54;9.43;;;6.25;;
59516;SDS011;45342;42.662;27.718;2023-12-29T03:42:21;7.95;;;5.72;;
59516;SDS011;45342;42.662;27.718;2023-12-29T03:44:46;10.25;;;6.25;;
59516;SDS011;45342;42.662;27.718;2023-12-29T03:47:12;8.05;;;6.10;;
59516;SDS011;45342;42.662;27.718;2023-12-29T03:49:38;7.45;;;5.78;;
59516;SDS011;45342;42.662;27.718;2023-12-29T03:52:03;9.20;;;6.30;;
59516;SDS011;45342;42.662;27.718;2023-12-29T03:54:29;7.22;;;5.90;;
59516;SDS011;45342;42.662;27.718;2023-12-29T03:56:55;6.63;;;5.43;;
59516;SDS011;45342;42.662;27.718;2023-12-29T03:59:21;9.30;;;6.22;;
59516;SDS011;45342;42.662;27.718;2023-12-29T04:01:47;9.32;;;6.20;;
59516;SDS011;45342;42.662;27.718;2023-12-29T04:04:13;8.70;;;5.80;;
59516;SDS011;45342;42.662;27.718;2023-12-29T04:06:38;7.88;;;5.97;;
59516;SDS011;45342;42.662;27.718;2023-12-29T04:09:04;9.15;;;5.82;;
59516;SDS011;45342;42.662;27.718;2023-12-29T04:11:30;7.78;;;5.97;;
59516;SDS011;45342;42.662;27.718;2023-12-29T04:13:56;8.32;;;6.07;;
59516;SDS011;45342;42.662;27.718;2023-12-29T04:16:21;7.90;;;5.85;;
59516;SDS011;45342;42.662;27.718;2023-12-29T04:18:47;7.93;;;5.78;;
59516;SDS011;45342;42.662;27.718;2023-12-29T04:21:13;7.35;;;5.88;;
59516;SDS011;45342;42.662;27.718;2023-12-29T04:23:40;8.32;;;5.88;;
59516;SDS011;45342;42.662;27.718;2023-12-29T04:26:08;8.13;;;5.88;;
59516;SDS011;45342;42.662;27.718;2023-12-29T04:28:34;8.65;;;6.00;;
59516;SDS011;45342;42.662;27.718;2023-12-29T04:31:00;8.75;;;5.82;;
59516;SDS011;45342;42.662;27.718;2023-12-29T04:33:30;8.13;;;6.00;;
59516;SDS011;45342;42.662;27.718;2023-12-29T04:35:56;8.18;;;5.88;;
59516;SDS011;45342;42.662;27.718;2023-12-29T04:38:21;8.68;;;6.32;;
59516;SDS011;45342;42.662;27.718;2023-12-29T04:40:47;9.10;;;6.28;;
59516;SDS011;45342;42.662;27.718;2023-12-29T04:43:13;10.23;;;6.10;;
59516;SDS011;45342;42.662;27.718;2023-12-29T04:45:38;8.60;;;6.30;;
59516;SDS011;45342;42.662;27.718;2023-12-29T04:48:04;9.00;;;5.88;;
59516;SDS011;45342;42.662;27.718;2023-12-29T04:50:30;8.70;;;6.53;;
59516;SDS011;45342;42.662;27.718;2023-12-29T04:52:55;8.18;;;6.28;;
59516;SDS011;45342;42.662;27.718;2023-12-29T04:55:22;8.35;;;6.30;;
59516;SDS011;45342;42.662;27.718;2023-12-29T04:57:48;8.55;;;6.30;;
59516;SDS011;45342;42.662;27.718;2023-12-29T05:00:14;8.32;;;6.18;;
59516;SDS011;45342;42.662;27.718;2023-12-29T05:02:39;7.20;;;5.75;;
59516;SDS011;45342;42.662;27.718;2023-12-29T05:05:05;9.52;;;6.40;;
59516;SDS011;45342;42.662;27.718;2023-12-29T05:07:31;7.28;;;5.55;;
59516;SDS011;45342;42.662;27.718;2023-12-29T05:09:57;8.68;;;6.07;;
59516;SDS011;45342;42.662;27.718;2023-12-29T05:12:22;7.82;;;5.82;;
59516;SDS011;45342;42.662;27.718;2023-12-29T05:14:48;8.88;;;6.03;;
59516;SDS011;45342;42.662;27.718;2023-12-29T05:17:14;8.13;;;5.90;;
59516;SDS011;45342;42.662;27.718;2023-12-29T05:19:39;8.27;;;6.18;;
59516;SDS011;45342;42.662;27.718;2023-12-29T05:22:05;7.57;;;5.90;;
59516;SDS011;45342;42.662;27.718;2023-12-29T05:24:31;8.23;;;6.15;;
59516;SDS011;45342;42.662;27.718;2023-12-29T05:26:56;6.97;;;5.88;;
59516;SDS011;45342;42.662;27.718;2023-12-29T05:29:23;8.13;;;6.05;;
59516;SDS011;45342;42.662;27.718;2023-12-29T05:31:49;9.13;;;6.60;;
59516;SDS011;45342;42.662;27.718;2023-12-29T05:34:15;7.88;;;5.97;;
59516;SDS011;45342;42.662;27.718;2023-12-29T05:36:42;7.85;;;5.78;;
59516;SDS011;45342;42.662;27.718;2023-12-29T05:39:08;8.18;;;6.15;;
59516;SDS011;45342;42.662;27.718;2023-12-29T05:41:34;9.02;;;5.90;;
59516;SDS011;45342;42.662;27.718;2023-12-29T05:43:59;7.15;;;5.70;;
59516;SDS011;45342;42.662;27.718;2023-12-29T05:46:27;7.05;;;5.65;;
59516;SDS011;45342;42.662;27.718;2023-12-29T05:48:53;9.88;;;6.70;;
59516;SDS011;45342;42.662;27.718;2023-12-29T05:51:19;9.23;;;6.25;;
59516;SDS011;45342;42.662;27.718;2023-12-29T05:56:16;8.52;;;6.53;;
59516;SDS011;45342;42.662;27.718;2023-12-29T05:58:42;11.40;;;6.57;;
59516;SDS011;45342;42.662;27.718;2023-12-29T06:01:09;8.18;;;6.00;;
59516;SDS011;45342;42.662;27.718;2023-12-29T06:03:36;9.00;;;6.72;;
59516;SDS011;45342;42.662;27.718;2023-12-29T06:06:02;8.95;;;5.97;;
59516;SDS011;45342;42.662;27.718;2023-12-29T06:08:27;8.70;;;6.47;;
59516;SDS011;45342;42.662;27.718;2023-12-29T06:10:54;9.85;;;6.63;;
59516;SDS011;45342;42.662;27.718;2023-12-29T06:13:20;9.57;;;6.97;;
59516;SDS011;45342;42.662;27.718;2023-12-29T06:15:46;11.25;;;6.88;;
59516;SDS011;45342;42.662;27.718;2023-12-29T06:18:12;9.55;;;6.60;;
59516;SDS011;45342;42.662;27.718;2023-12-29T06:20:38;9.27;;;6.53;;
59516;SDS011;45342;42.662;27.718;2023-12-29T06:23:04;8.10;;;6.15;;
59516;SDS011;45342;42.662;27.718;2023-12-29T06:25:30;9.55;;;5.95;;
59516;SDS011;45342;42.662;27.718;2023-12-29T06:27:55;10.20;;;6.57;;
59516;SDS011;45342;42.662;27.718;2023-12-29T06:30:21;9.30;;;6.20;;
59516;SDS011;45342;42.662;27.718;2023-12-29T06:32:47;8.18;;;6.20;;
59516;SDS011;45342;42.662;27.718;2023-12-29T06:35:14;9.02;;;6.32;;
59516;SDS011;45342;42.662;27.718;2023-12-29T06:37:39;9.32;;;6.30;;
59516;SDS011;45342;42.662;27.718;2023-12-29T06:40:06;8.93;;;6.80;;
59516;SDS011;45342;42.662;27.718;2023-12-29T06:42:32;9.02;;;6.22;;
59516;SDS011;45342;42.662;27.718;2023-12-29T06:44:58;45.17;;;12.02;;
59516;SDS011;45342;42.662;27.718;2023-12-29T06:47:24;12.25;;;7.45;;
59516;SDS011;45342;42.662;27.718;2023-12-29T06:49:50;12.90;;;7.05;;
59516;SDS011;45342;42.662;27.718;2023-12-29T06:52:16;10.77;;;6.63;;
59516;SDS011;45342;42.662;27.718;2023-12-29T06:54:42;10.45;;;6.82;;
59516;SDS011;45342;42.662;27.718;2023-12-29T06:57:07;10.55;;;7.15;;
59516;SDS011;45342;42.662;27.718;2023-12-29T06:59:33;10.27;;;7.25;;
59516;SDS011;45342;42.662;27.718;2023-12-29T07:01:59;10.52;;;7.05;;
59516;SDS011;45342;42.662;27.718;2023-12-29T07:04:25;11.35;;;7.28;;
59516;SDS011;45342;42.662;27.718;2023-12-29T07:06:52;11.35;;;7.28;;
59516;SDS011;45342;42.662;27.718;2023-12-29T07:09:18;10.40;;;6.93;;
59516;SDS011;45342;42.662;27.718;2023-12-29T07:11:47;9.95;;;6.78;;
59516;SDS011;45342;42.662;27.718;2023-12-29T07:14:14;11.35;;;7.28;;
59516;SDS011;45342;42.662;27.718;2023-12-29T07:16:40;9.25;;;7.07;;
59516;SDS011;45342;42.662;27.718;2023-12-29T07:19:06;8.90;;;6.47;;
59516;SDS011;45342;42.662;27.718;2023-12-29T07:21:33;10.73;;;6.50;;
59516;SDS011;45342;42.662;27.718;2023-12-29T07:24:01;11.43;;;6.93;;
59516;SDS011;45342;42.662;27.718;2023-12-29T07:26:35;7.97;;;6.30;;
59516;SDS011;45342;42.662;27.718;2023-12-29T07:29:01;9.88;;;6.47;;
59516;SDS011;45342;42.662;27.718;2023-12-29T07:31:27;9.45;;;6.72;;
59516;SDS011;45342;42.662;27.718;2023-12-29T07:33:59;9.52;;;6.47;;
59516;SDS011;45342;42.662;27.718;2023-12-29T07:36:25;9.65;;;6.72;;
59516;SDS011;45342;42.662;27.718;2023-12-29T07:38:51;10.02;;;7.35;;
59516;SDS011;45342;42.662;27.718;2023-12-29T07:41:17;10.25;;;6.85;;
59516;SDS011;45342;42.662;27.718;2023-12-29T07:43:43;10.38;;;6.70;;
59516;SDS011;45342;42.662;27.718;2023-12-29T07:46:09;8.80;;;6.40;;
59516;SDS011;45342;42.662;27.718;2023-12-29T07:48:35;10.82;;;7.18;;
59516;SDS011;45342;42.662;27.718;2023-12-29T07:51:04;10.60;;;6.80;;
59516;SDS011;45342;42.662;27.718;2023-12-29T07:53:31;11.20;;;7.25;;
59516;SDS011;45342;42.662;27.718;2023-12-29T07:55:56;9.77;;;7.07;;
59516;SDS011;45342;42.662;27.718;2023-12-29T07:58:22;10.95;;;7.25;;
59516;SDS011;45342;42.662;27.718;2023-12-29T08:00:48;9.05;;;7.07;;
59516;SDS011;45342;42.662;27.718;2023-12-29T08:05:40;8.82;;;5.80;;
59516;SDS011;45342;42.662;27.718;2023-12-29T08:08:06;8.23;;;6.07;;
59516;SDS011;45342;42.662;27.718;2023-12-29T08:10:32;8.88;;;5.93;;
59516;SDS011;45342;42.662;27.718;2023-12-29T08:12:58;9.15;;;6.20;;
59516;SDS011;45342;42.662;27.718;2023-12-29T08:15:24;9.95;;;6.75;;
59516;SDS011;45342;42.662;27.718;2023-12-29T08:17:50;8.77;;;6.53;;
59516;SDS011;45342;42.662;27.718;2023-12-29T08:20:19;7.72;;;5.80;;
59516;SDS011;45342;42.662;27.718;2023-12-29T08:22:46;8.18;;;5.90;;
59516;SDS011;45342;42.662;27.718;2023-12-29T08:25:12;7.90;;;5.85;;
59516;SDS011;45342;42.662;27.718;2023-12-29T08:27:39;8.38;;;5.32;;
59516;SDS011;45342;42.662;27.718;2023-12-29T08:30:06;9.15;;;5.95;;
59516;SDS011;45342;42.662;27.718;2023-12-29T08:32:33;10.00;;;5.65;;
59516;SDS011;45342;42.662;27.718;2023-12-29T08:34:59;7.78;;;5.40;;
59516;SDS011;45342;42.662;27.718;2023-12-29T08:37:25;7.43;;;5.50;;
59516;SDS011;45342;42.662;27.718;2023-12-29T08:39:51;6.90;;;4.80;;
59516;SDS011;45342;42.662;27.718;2023-12-29T08:42:21;9.45;;;5.60;;
59516;SDS011;45342;42.662;27.718;2023-12-29T08:44:47;7.68;;;5.35;;
59516;SDS011;45342;42.662;27.718;2023-12-29T08:47:13;7.97;;;5.40;;
59516;SDS011;45342;42.662;27.718;2023-12-29T08:49:39;7.35;;;5.15;;
59516;SDS011;45342;42.662;27.718;2023-12-29T08:52:06;8.02;;;5.40;;
59516;SDS011;45342;42.662;27.718;2023-12-29T08:54:35;8.65;;;5.35;;
59516;SDS011;45342;42.662;27.718;2023-12-29T08:57:04;7.72;;;5.30;;
59516;SDS011;45342;42.662;27.718;2023-12-29T08:59:32;7.75;;;5.18;;
59516;SDS011;45342;42.662;27.718;2023-12-29T09:01:58;7.60;;;5.20;;
59516;SDS011;45342;42.662;27.718;2023-12-29T09:04:25;8.43;;;5.32;;
59516;SDS011;45342;42.662;27.718;2023-12-29T09:06:52;9.85;;;5.63;;
59516;SDS011;45342;42.662;27.718;2023-12-29T09:09:18;10.05;;;5.13;;
59516;SDS011;45342;42.662;27.718;2023-12-29T09:11:44;12.07;;;5.80;;
59516;SDS011;45342;42.662;27.718;2023-12-29T09:14:14;8.32;;;4.85;;
59516;SDS011;45342;42.662;27.718;2023-12-29T09:16:40;10.00;;;5.75;;
59516;SDS011;45342;42.662;27.718;2023-12-29T09:19:07;10.75;;;5.40;;
59516;SDS011;45342;42.662;27.718;2023-12-29T09:21:33;9.80;;;5.63;;
59516;SDS011;45342;42.662;27.718;2023-12-29T09:24:00;9.52;;;5.40;;
59516;SDS011;45342;42.662;27.718;2023-12-29T09:26:27;9.88;;;5.63;;
59516;SDS011;45342;42.662;27.718;2023-12-29T09:28:53;9.73;;;5.63;;
59516;SDS011;45342;42.662;27.718;2023-12-29T09:31:18;9.40;;;5.45;;
59516;SDS011;45342;42.662;27.718;2023-12-29T09:33:44;12.50;;;5.80;;
59516;SDS011;45342;42.662;27.718;2023-12-29T09:36:10;10.07;;;5.57;;
59516;SDS011;45342;42.662;27.718;2023-12-29T09:38:36;11.93;;;6.03;;
59516;SDS011;45342;42.662;27.718;2023-12-29T09:41:07;13.07;;;6.38;;
59516;SDS011;45342;42.662;27.718;2023-12-29T09:43:35;13.10;;;6.10;;
59516;SDS011;45342;42.662;27.718;2023-12-29T09:46:01;13.82;;;5.95;;
59516;SDS011;45342;42.662;27.718;2023-12-29T09:48:28;14.90;;;6.00;;
59516;SDS011;45342;42.662;27.718;2023-12-29T09:50:54;11.85;;;5.85;;
59516;SDS011;45342;42.662;27.718;2023-12-29T09:53:20;10.35;;;5.95;;
59516;SDS011;45342;42.662;27.718;2023-12-29T09:55:49;12.15;;;6.10;;
59516;SDS011;45342;42.662;27.718;2023-12-29T09:58:16;13.02;;;6.00;;
59516;SDS011;45342;42.662;27.718;2023-12-29T10:00:46;13.20;;;6.18;;
59516;SDS011;45342;42.662;27.718;2023-12-29T10:03:12;11.65;;;6.82;;
59516;SDS011;45342;42.662;27.718;2023-12-29T10:05:38;13.13;;;6.90;;
59516;SDS011;45342;42.662;27.718;2023-12-29T10:08:03;14.40;;;6.57;;
59516;SDS011;45342;42.662;27.718;2023-12-29T10:10:30;13.20;;;6.60;;
59516;SDS011;45342;42.662;27.718;2023-12-29T10:12:57;14.43;;;7.30;;
59516;SDS011;45342;42.662;27.718;2023-12-29T10:18:26;12.38;;;7.22;;
59516;SDS011;45342;42.662;27.718;2023-12-29T10:21:01;13.23;;;6.57;;
59516;SDS011;45342;42.662;27.718;2023-12-29T10:26:10;11.25;;;6.50;;
59516;SDS011;45342;42.662;27.718;2023-12-29T10:28:38;11.38;;;6.30;;
59516;SDS011;45342;42.662;27.718;2023-12-29T10:31:04;11.85;;;6.78;;
59516;SDS011;45342;42.662;27.718;2023-12-29T10:33:30;12.88;;;6.72;;
59516;SDS011;45342;42.662;27.718;2023-12-29T10:36:01;11.43;;;6.35;;
59516;SDS011;45342;42.662;27.718;2023-12-29T10:38:32;10.63;;;6.63;;
59516;SDS011;45342;42.662;27.718;2023-12-29T10:41:15;9.95;;;6.28;;
59516;SDS011;45342;42.662;27.718;2023-12-29T10:43:43;12.43;;;6.82;;
59516;SDS011;45342;42.662;27.718;2023-12-29T10:46:12;9.68;;;5.70;;
59516;SDS011;45342;42.662;27.718;2023-12-29T10:48:38;9.82;;;6.20;;
59516;SDS011;45342;42.662;27.718;2023-12-29T10:51:05;11.38;;;6.32;;
59516;SDS011;45342;42.662;27.718;2023-12-29T10:53:31;12.05;;;6.90;;
59516;SDS011;45342;42.662;27.718;2023-12-29T10:55:58;14.65;;;6.38;;
59516;SDS011;45342;42.662;27.718;2023-12-29T10:58:27;11.32;;;6.45;;
59516;SDS011;45342;42.662;27.718;2023-12-29T11:00:57;11.65;;;7.03;;
59516;SDS011;45342;42.662;27.718;2023-12-29T11:03:24;11.88;;;6.53;;
59516;SDS011;45342;42.662;27.718;2023-12-29T11:05:59;11.43;;;6.50;;
59516;SDS011;45342;42.662;27.718;2023-12-29T11:08:25;10.70;;;6.50;;
59516;SDS011;45342;42.662;27.718;2023-12-29T11:10:51;11.55;;;6.47;;
59516;SDS011;45342;42.662;27.718;2023-12-29T11:13:17;10.27;;;6.40;;
59516;SDS011;45342;42.662;27.718;2023-12-29T11:15:44;10.95;;;6.47;;
59516;SDS011;45342;42.662;27.718;2023-12-29T11:18:13;11.18;;;6.70;;
59516;SDS011;45342;42.662;27.718;2023-12-29T11:20:41;11.38;;;5.75;;
59516;SDS011;45342;42.662;27.718;2023-12-29T11:23:08;9.73;;;6.18;;
59516;SDS011;45342;42.662;27.718;2023-12-29T11:25:35;11.68;;;6.25;;
59516;SDS011;45342;42.662;27.718;2023-12-29T11:28:01;9.07;;;5.95;;
59516;SDS011;45342;42.662;27.718;2023-12-29T11:30:27;12.00;;;6.57;;
59516;SDS011;45342;42.662;27.718;2023-12-29T11:38:29;11.48;;;6.40;;
59516;SDS011;45342;42.662;27.718;2023-12-29T11:43:44;12.25;;;7.03;;
59516;SDS011;45342;42.662;27.718;2023-12-29T11:49:00;17.50;;;6.97;;
59516;SDS011;45342;42.662;27.718;2023-12-29T11:51:39;13.95;;;6.80;;
59516;SDS011;45342;42.662;27.718;2023-12-29T11:54:05;11.57;;;6.37;;
59516;SDS011;45342;42.662;27.718;2023-12-29T11:56:39;9.75;;;6.18;;
59516;SDS011;45342;42.662;27.718;2023-12-29T11:59:16;10.65;;;6.18;;
59516;SDS011;45342;42.662;27.718;2023-12-29T12:01:45;13.50;;;6.53;;
59516;SDS011;45342;42.662;27.718;2023-12-29T12:04:33;12.85;;;6.40;;
59516;SDS011;45342;42.662;27.718;2023-12-29T12:12:49;10.75;;;6.85;;
59516;SDS011;45342;42.662;27.718;2023-12-29T12:20:33;11.15;;;6.63;;
59516;SDS011;45342;42.662;27.718;2023-12-29T12:25:32;11.48;;;6.97;;
59516;SDS011;45342;42.662;27.718;2023-12-29T12:28:00;11.13;;;6.95;;
59516;SDS011;45342;42.662;27.718;2023-12-29T12:30:30;10.85;;;6.88;;
59516;SDS011;45342;42.662;27.718;2023-12-29T12:33:02;11.10;;;6.95;;
59516;SDS011;45342;42.662;27.718;2023-12-29T12:35:29;12.27;;;7.03;;
59516;SDS011;45342;42.662;27.718;2023-12-29T12:38:08;12.02;;;6.85;;
59516;SDS011;45342;42.662;27.718;2023-12-29T12:40:49;13.57;;;6.72;;
59516;SDS011;45342;42.662;27.718;2023-12-29T12:46:02;11.07;;;6.63;;
59516;SDS011;45342;42.662;27.718;2023-12-29T12:48:29;12.35;;;6.60;;
59516;SDS011;45342;42.662;27.718;2023-12-29T12:50:59;10.95;;;6.90;;
59516;SDS011;45342;42.662;27.718;2023-12-29T12:53:26;11.85;;;6.72;;
59516;SDS011;45342;42.662;27.718;2023-12-29T12:55:52;14.75;;;6.75;;
59516;SDS011;45342;42.662;27.718;2023-12-29T12:58:19;13.57;;;6.70;;
59516;SDS011;45342;42.662;27.718;2023-12-29T13:00:48;9.32;;;6.65;;
59516;SDS011;45342;42.662;27.718;2023-12-29T13:03:14;11.65;;;7.13;;
59516;SDS011;45342;42.662;27.718;2023-12-29T13:05:40;12.45;;;7.18;;
59516;SDS011;45342;42.662;27.718;2023-12-29T13:08:06;11.57;;;7.13;;
59516;SDS011;45342;42.662;27.718;2023-12-29T13:10:33;12.57;;;7.18;;
59516;SDS011;45342;42.662;27.718;2023-12-29T13:12:58;14.95;;;7.53;;
59516;SDS011;45342;42.662;27.718;2023-12-29T13:15:24;11.93;;;7.30;;
59516;SDS011;45342;42.662;27.718;2023-12-29T13:17:53;14.32;;;7.53;;
59516;SDS011;45342;42.662;27.718;2023-12-29T13:20:19;12.00;;;7.13;;
59516;SDS011;45342;42.662;27.718;2023-12-29T13:25:20;11.57;;;7.18;;
59516;SDS011;45342;42.662;27.718;2023-12-29T13:27:49;11.73;;;7.47;;
59516;SDS011;45342;42.662;27.718;2023-12-29T13:30:15;13.23;;;7.50;;
59516;SDS011;45342;42.662;27.718;2023-12-29T13:32:41;17.83;;;7.82;;
59516;SDS011;45342;42.662;27.718;2023-12-29T13:35:09;16.13;;;7.78;;
59516;SDS011;45342;42.662;27.718;2023-12-29T13:37:48;16.85;;;8.13;;
59516;SDS011;45342;42.662;27.718;2023-12-29T13:40:16;12.85;;;7.47;;
59516;SDS011;45342;42.662;27.718;2023-12-29T13:45:18;11.05;;;7.50;;
59516;SDS011;45342;42.662;27.718;2023-12-29T13:47:45;16.65;;;8.30;;
59516;SDS011;45342;42.662;27.718;2023-12-29T13:50:11;13.75;;;7.82;;
59516;SDS011;45342;42.662;27.718;2023-12-29T13:52:37;12.18;;;7.80;;
59516;SDS011;45342;42.662;27.718;2023-12-29T13:57:36;15.25;;;8.52;;
59516;SDS011;45342;42.662;27.718;2023-12-29T14:00:15;14.57;;;8.15;;
59516;SDS011;45342;42.662;27.718;2023-12-29T14:02:43;16.45;;;8.30;;
59516;SDS011;45342;42.662;27.718;2023-12-29T14:05:23;14.38;;;8.15;;
59516;SDS011;45342;42.662;27.718;2023-12-29T14:10:32;11.98;;;7.65;;
59516;SDS011;45342;42.662;27.718;2023-12-29T14:13:09;11.52;;;7.35;;
59516;SDS011;45342;42.662;27.718;2023-12-29T14:15:37;15.07;;;7.60;;
59516;SDS011;45342;42.662;27.718;2023-12-29T14:20:58;12.73;;;7.47;;
59516;SDS011;45342;42.662;27.718;2023-12-29T14:25:50;12.27;;;7.10;;
59516;SDS011;45342;42.662;27.718;2023-12-29T14:28:16;12.13;;;7.60;;
59516;SDS011;45342;42.662;27.718;2023-12-29T14:30:43;14.75;;;8.43;;
59516;SDS011;45342;42.662;27.718;2023-12-29T14:33:09;15.95;;;8.35;;
59516;SDS011;45342;42.662;27.718;2023-12-29T14:35:35;12.77;;;8.13;;
59516;SDS011;45342;42.662;27.718;2023-12-29T14:38:00;12.70;;;8.10;;
59516;SDS011;45342;42.662;27.718;2023-12-29T14:40:26;12.57;;;8.02;;
59516;SDS011;45342;42.662;27.718;2023-12-29T14:42:52;18.42;;;7.30;;
59516;SDS011;45342;42.662;27.718;2023-12-29T14:45:18;12.27;;;7.93;;
59516;SDS011;45342;42.662;27.718;2023-12-29T14:47:44;14.48;;;8.13;;
59516;SDS011;45342;42.662;27.718;2023-12-29T14:50:14;15.50;;;8.38;;
59516;SDS011;45342;42.662;27.718;2023-12-29T14:52:41;13.35;;;8.13;;
59516;SDS011;45342;42.662;27.718;2023-12-29T14:55:09;12.32;;;8.23;;
59516;SDS011;45342;42.662;27.718;2023-12-29T14:57:44;12.32;;;7.88;;
59516;SDS011;45342;42.662;27.718;2023-12-29T15:00:10;14.95;;;7.65;;
59516;SDS011;45342;42.662;27.718;2023-12-29T15:02:39;13.68;;;7.68;;
59516;SDS011;45342;42.662;27.718;2023-12-29T15:05:07;12.18;;;7.50;;
59516;SDS011;45342;42.662;27.718;2023-12-29T15:07:32;12.57;;;7.25;;
59516;SDS011;45342;42.662;27.718;2023-12-29T15:09:58;12.98;;;7.85;;
59516;SDS011;45342;42.662;27.718;2023-12-29T15:12:24;13.68;;;7.45;;
59516;SDS011;45342;42.662;27.718;2023-12-29T15:14:49;13.82;;;7.80;;
59516;SDS011;45342;42.662;27.718;2023-12-29T15:17:15;10.30;;;7.10;;
59516;SDS011;45342;42.662;27.718;2023-12-29T15:19:41;11.55;;;7.10;;
59516;SDS011;45342;42.662;27.718;2023-12-29T15:22:07;11.18;;;7.25;;
59516;SDS011;45342;42.662;27.718;2023-12-29T15:24:32;11.98;;;7.55;;
59516;SDS011;45342;42.662;27.718;2023-12-29T15:26:58;13.32;;;7.32;;
59516;SDS011;45342;42.662;27.718;2023-12-29T15:29:24;10.57;;;7.00;;